KARV/ARV METAR and TAF weather

Enter ICAO airport designator
Station Type Date Time Source
KARV METAR 2019/10/21 22:15 UTC NOAA

KARV 212215Z AUTO 15007KT 10SM SCT011 BKN020 OVC048 13/10 A2924 RMK AO2 T01250104


Station Type Date Time Source
KARV Decoded METAR 2019/10/21 22:15 UTC NOAA

Minocqua/Woodruff, Lakeland Airport/Noble F. Lee Memorial Field, WI, United States (KARV) 45-56N 089-44W
Oct 21, 2019 - 06:15 PM EDT / 2019.10.21 2215 UTC
Wind: from the SSE (150 degrees) at 8 MPH (7 KT):0
Visibility: 10 mile(s):0
Sky conditions: overcast
Temperature: 54.5 F (12.5 C)
Dew Point: 50.7 F (10.4 C)
Relative Humidity: 87%
Pressure (altimeter): 29.24 in. Hg (990 hPa)
ob: KARV 212215Z AUTO 15007KT 10SM SCT011 BKN020 OVC048 13/10 A2924 RMK AO2 T01250104
cycle: 22

Station Type Date Time Source
KARV TAF UTC NOAA

Error!

Example: see airport list